^^
Grace C. Lehan Memorial Weather Station Historical Data
Daily Summary for October 02, 2022 Units:  English    Metric   Both
Daily Weekly Monthly Yearly
  High: Low: Average:
Temperature: 58.9 °F 49.9 °F 55.4 °F
Dew Point: 50.7 °F 35.4 °F 43.7 °F
Humidity: 80% 50.2% 65%
Wind Speed: 7.8mph 0mph 2.1mph
Wind Gust: 23mph - -
Wind- - ENE
Pressure: 30.23 in 29.99 in -
Precipitation: 0.00 in    
 
 
Tabular Data for October 02, 2022
Time Temperature Dew Point Pressure Wind Wind Speed Wind Gust Humidity Rainfall Rate (Hourly) solar
00:04 58.6 °F 46.1 °F 29.99 in Calm     63% 0.00 in 0 W/m2
00:09 58.6 °F 46.1 °F 29.99 in Calm   1 mph 63.2% 0.00 in 0 W/m2
00:14 58.6 °F 46.3 °F 29.99 in Calm   3 mph 63.5% 0.00 in 0 W/m2
00:19 58.5 °F 46.4 °F 29.99 in NNW 0.3 mph 9 mph 63.9% 0.00 in 0 W/m2
00:24 58.5 °F 46.5 °F 29.99 in East 0.4 mph 9 mph 64.2% 0.00 in 0 W/m2
00:29 58.5 °F 46.7 °F 29.99 in ENE 0.7 mph 9 mph 64.8% 0.00 in 0 W/m2
00:34 58.5 °F 46.8 °F 29.99 in NE 0.9 mph 9 mph 65% 0.00 in 0 W/m2
00:39 58.6 °F 46.9 °F 30.00 in NE 0.6 mph 10 mph 65% 0.00 in 0 W/m2
00:44 58.6 °F 47.1 °F 30.00 in NNE 0.8 mph 10 mph 65.5% 0.00 in 0 W/m2
00:49 58.6 °F 47.2 °F 29.99 in North 0.4 mph 10 mph 65.8% 0.00 in 0 W/m2
00:54 58.6 °F 47.3 °F 29.99 in NW 0.4 mph 10 mph 66% 0.00 in 0 W/m2
00:59 58.6 °F 47.3 °F 29.99 in NE 1.4 mph 10 mph 66% 0.00 in 0 W/m2
01:04 58.6 °F 47.3 °F 29.99 in NNE 1 mph 10 mph 66% 0.00 in 0 W/m2
01:09 58.6 °F 47.3 °F 29.99 in NW 0.2 mph 10 mph 66% 0.00 in 0 W/m2
01:14 58.7 °F 47.7 °F 29.99 in NE 0.6 mph 10 mph 66.8% 0.00 in 0 W/m2
01:19 58.7 °F 47.8 °F 29.99 in NW 0.7 mph 10 mph 67% 0.00 in 0 W/m2
01:24 58.7 °F 47.7 °F 29.99 in ENE 1 mph 10 mph 66.8% 0.00 in 0 W/m2
01:29 58.7 °F 47.8 °F 29.99 in NNE 0.7 mph 10 mph 67% 0.00 in 0 W/m2
01:34 58.7 °F 48 °F 29.99 in NE 0.9 mph 10 mph 67.5% 0.00 in 0 W/m2
01:39 58.7 °F 48.2 °F 30.00 in ENE 0.3 mph 9 mph 68% 0.00 in 0 W/m2
01:44 58.7 °F 48.2 °F 30.01 in ENE 2 mph 9 mph 68.1% 0.00 in 0 W/m2
01:49 58.8 °F 48.3 °F 30.01 in NE 2.3 mph 13 mph 68.2% 0.00 in 0 W/m2
01:54 58.8 °F 48.6 °F 30.00 in NE 0.8 mph 13 mph 68.8% 0.00 in 0 W/m2
01:59 58.9 °F 48.7 °F 30.01 in ENE 0.7 mph 13 mph 69% 0.00 in 0 W/m2
02:04 58.9 °F 49 °F 30.01 in ENE 1.4 mph 13 mph 69.8% 0.00 in 0 W/m2
02:09 58.9 °F 49.2 °F 30.01 in ENE 1.5 mph 9 mph 70% 0.00 in 0 W/m2
02:14 58.9 °F 49.2 °F 30.01 in NE 1.6 mph 9 mph 70% 0.00 in 0 W/m2
02:19 58.9 °F 49.2 °F 30.01 in NE 2.8 mph 13 mph 70% 0.00 in 0 W/m2
02:24 58.9 °F 49.1 °F 30.01 in ENE 1.1 mph 13 mph 70% 0.00 in 0 W/m2
02:29 58.9 °F 49.2 °F 30.01 in ENE 2.1 mph 13 mph 70.3% 0.00 in 0 W/m2
02:34 58.9 °F 49.5 °F 30.01 in ENE 1.5 mph 13 mph 71% 0.00 in 0 W/m2
02:39 58.8 °F 49.4 °F 30.01 in NE 2.2 mph 9 mph 71% 0.00 in 0 W/m2
02:44 58.8 °F 49.4 °F 30.01 in ENE 1.6 mph 9 mph 71% 0.00 in 0 W/m2
02:49 58.8 °F 49.4 °F 30.01 in NE 1.1 mph 9 mph 71% 0.00 in 0 W/m2
02:54 58.7 °F 49.6 °F 30.01 in ENE 0.5 mph 9 mph 71.7% 0.00 in 0 W/m2
02:59 58.7 °F 49.7 °F 30.02 in ENE 0.9 mph 9 mph 72% 0.00 in 0 W/m2
03:04 58.7 °F 49.8 °F 30.02 in NE 0.6 mph 9 mph 72.2% 0.00 in 0 W/m2
03:09 58.6 °F 50 °F 30.02 in NE 0.8 mph 7 mph 73% 0.00 in 0 W/m2
03:14 58.6 °F 50 °F 30.02 in NE 0.6 mph 7 mph 73% 0.00 in 0 W/m2
03:19 58.6 °F 50 °F 30.02 in NE 0.4 mph 7 mph 73% 0.00 in 0 W/m2
03:24 58.6 °F 50.2 °F 30.02 in North 0.2 mph 7 mph 73.7% 0.00 in 0 W/m2
03:29 58.5 °F 50.3 °F 30.02 in NE 0.4 mph 7 mph 74% 0.00 in 0 W/m2
03:34 58.4 °F 50.5 °F 30.01 in ENE 0.4 mph 7 mph 74.9% 0.00 in 0 W/m2
03:39 58.4 °F 50.5 °F 30.01 in Calm   6 mph 75% 0.00 in 0 W/m2
03:44 58.3 °F 50.7 °F 30.01 in SSE 0.4 mph 6 mph 75.7% 0.00 in 0 W/m2
03:49 58.2 °F 50.7 °F 30.01 in NNW 0.1 mph 6 mph 76% 0.00 in 0 W/m2
03:54 58.2 °F 50.6 °F 30.01 in ENE 0.8 mph 6 mph 76% 0.00 in 0 W/m2
03:59 58.1 °F 50.6 °F 30.01 in NE 0.3 mph 6 mph 76% 0.00 in 0 W/m2
04:00 58.1 °F 50.6 °F 30.01 in Calm   6 mph 76% 0.00 in 0 W/m2
04:09 58 °F 50.5 °F 30.01 in ENE 0.4 mph 7 mph 76.2% 0.00 in 0 W/m2
04:14 57.9 °F 50.5 °F 30.01 in NE 1.4 mph 10 mph 76.2% 0.00 in 0 W/m2
04:19 57.8 °F 50.5 °F 30.01 in North 1 mph 15 mph 76.4% 0.00 in 0 W/m2
04:24 57.8 °F 50.4 °F 30.00 in ENE 1 mph 15 mph 76.3% 0.00 in 0 W/m2
04:29 57.7 °F 50.3 °F 30.01 in NNE 1.5 mph 15 mph 76.3% 0.00 in 0 W/m2
04:34 57.7 °F 50.3 °F 30.01 in NE 0.6 mph 15 mph 76.2% 0.00 in 0 W/m2
04:39 57.7 °F 50.4 °F 30.01 in North 1.1 mph 7 mph 76.4% 0.00 in 0 W/m2
04:44 57.7 °F 50.3 °F 30.01 in ENE 0.7 mph 7 mph 76.2% 0.00 in 0 W/m2
04:49 57.7 °F 50.2 °F 30.01 in NE 1.3 mph 7 mph 76% 0.00 in 0 W/m2
04:54 57.7 °F 50.3 °F 30.01 in NNE 1.4 mph 12 mph 76.3% 0.00 in 0 W/m2
04:59 57.7 °F 50.2 °F 30.01 in NE 0.7 mph 12 mph 76% 0.00 in 0 W/m2
05:04 57.7 °F 50.5 °F 30.01 in North 1.1 mph 12 mph 76.8% 0.00 in 0 W/m2
05:09 57.6 °F 50.5 °F 30.01 in NNE 0.7 mph 11 mph 77% 0.00 in 0 W/m2
05:14 57.6 °F 50.4 °F 30.01 in NE 0.4 mph 11 mph 77% 0.00 in 0 W/m2
05:19 57.5 °F 50.4 °F 30.01 in NE 0.9 mph 11 mph 77% 0.00 in 0 W/m2
05:24 57.5 °F 50.4 °F 30.02 in NNE 1.1 mph 11 mph 77% 0.00 in 0 W/m2
05:29 57.5 °F 50.4 °F 30.02 in NNW 1 mph 13 mph 77% 0.00 in 0 W/m2
05:34 57.4 °F 50.3 °F 30.02 in NNE 0.5 mph 13 mph 77% 0.00 in 0 W/m2
05:39 57.4 °F 50.3 °F 30.02 in NNE 1 mph 7 mph 77% 0.00 in 0 W/m2
05:44 57.3 °F 50.2 °F 30.02 in NNE 0.9 mph 7 mph 77% 0.00 in 0 W/m2
05:49 57.3 °F 50.2 °F 30.02 in North 0.5 mph 7 mph 77.2% 0.00 in 0 W/m2
05:54 57.2 °F 50 °F 30.02 in ENE 1.6 mph 11 mph 77% 0.00 in 0 W/m2
05:59 57.1 °F 50.2 °F 30.02 in NNE 0.8 mph 11 mph 77.5% 0.00 in 0 W/m2
06:04 57.1 °F 50.3 °F 30.03 in NE 1.3 mph 11 mph 78% 0.00 in 0 W/m2
06:09 57 °F 50.2 °F 30.03 in ENE 1.1 mph 10 mph 78% 0.00 in 0 W/m2
06:14 56.9 °F 50.1 °F 30.04 in ENE 1.1 mph 10 mph 78% 0.00 in 0 W/m2
06:19 56.8 °F 50.1 °F 30.04 in NNE 0.5 mph 10 mph 78.1% 0.00 in 0 W/m2
06:24 56.7 °F 50.2 °F 30.04 in North 0.3 mph 10 mph 78.6% 0.00 in 0 W/m2
06:29 56.7 °F 50.3 °F 30.04 in NNE 0.6 mph 10 mph 79% 0.00 in 0 W/m2
06:34 56.6 °F 50.2 °F 30.05 in NE 0.8 mph 10 mph 79% 0.00 in 0 W/m2
06:39 56.5 °F 50.1 °F 30.05 in ENE 1.6 mph 10 mph 79% 0.00 in 0 W/m2
06:44 56.4 °F 50.2 °F 30.05 in ENE 1.2 mph 10 mph 79.7% 0.00 in 0 W/m2
06:49 56.4 °F 50.3 °F 30.05 in ENE 0.4 mph 10 mph 80% 0.00 in 0 W/m2
06:54 56.3 °F 50.2 °F 30.05 in NE 1 mph 10 mph 80% 0.00 in 0 W/m2
06:59 56.3 °F 50.2 °F 30.05 in NE 0.8 mph 10 mph 80% 0.00 in 0 W/m2
07:04 56.3 °F 50.2 °F 30.06 in East 1.5 mph 10 mph 80% 0.00 in 0 W/m2
07:09 56.3 °F 50.2 °F 30.06 in ENE 1.3 mph 7 mph 80% 0.00 in 5 W/m2
07:14 56.3 °F 50.2 °F 30.05 in ENE 2 mph 10 mph 80% 0.00 in 7 W/m2
07:19 56.4 °F 50.3 °F 30.05 in ENE 0.8 mph 10 mph 80% 0.00 in 12 W/m2
07:24 56.4 °F 50.4 °F 30.05 in ENE 1.5 mph 10 mph 80% 0.00 in 11 W/m2
07:29 56.5 °F 50.4 °F 30.05 in ENE 1.1 mph 10 mph 80% 0.00 in 9 W/m2
07:34 56.5 °F 50.4 °F 30.06 in ENE 1.7 mph 10 mph 79.9% 0.00 in 7 W/m2
07:39 56.5 °F 50.1 °F 30.06 in ENE 1.7 mph 9 mph 79.2% 0.00 in 9 W/m2
07:44 56.5 °F 50.1 °F 30.06 in NE 2.9 mph 12 mph 79% 0.00 in 7 W/m2
07:49 56.5 °F 50.1 °F 30.07 in NE 4.3 mph 12 mph 79% 0.00 in 7 W/m2
07:54 56.5 °F 50.1 °F 30.07 in ENE 0.8 mph 12 mph 79% 0.00 in 16 W/m2
07:59 56.5 °F 50 °F 30.07 in ENE 2.3 mph 12 mph 79% 0.00 in 16 W/m2
08:09 56.4 °F 49.9 °F 30.07 in ENE 2.4 mph 12 mph 78.8% 0.00 in 30 W/m2
08:14 56.4 °F 49.7 °F 30.08 in ENE 2.8 mph 12 mph 78.1% 0.00 in 44 W/m2
08:19 56.4 °F 49.6 °F 30.08 in East 1.5 mph 12 mph 78% 0.00 in 42 W/m2
08:24 56.4 °F 49.6 °F 30.08 in NE 2.2 mph 12 mph 78% 0.00 in 40 W/m2
08:29 56.4 °F 49.6 °F 30.09 in ENE 1.3 mph 12 mph 78% 0.00 in 44 W/m2
08:34 56.4 °F 49.6 °F 30.09 in ENE 1.9 mph 12 mph 78% 0.00 in 63 W/m2
08:39 56.4 °F 49.6 °F 30.09 in NE 3.1 mph 11 mph 78% 0.00 in 72 W/m2
08:44 56.4 °F 49.6 °F 30.09 in NE 3.9 mph 13 mph 77.9% 0.00 in 65 W/m2
08:49 56.4 °F 49.3 °F 30.09 in NE 1.9 mph 13 mph 77.1% 0.00 in 70 W/m2
08:54 56.4 °F 49.3 °F 30.08 in ENE 2.1 mph 13 mph 77.1% 0.00 in 62 W/m2
08:59 56.4 °F 49.4 °F 30.09 in NE 3.4 mph 16 mph 77.2% 0.00 in 49 W/m2
09:04 56.3 °F 49.2 °F 30.09 in NE 0.8 mph 16 mph 77% 0.00 in 54 W/m2
09:09 56.3 °F 49.2 °F 30.09 in ENE 2.7 mph 11 mph 77% 0.00 in 69 W/m2
09:14 56.2 °F 49.2 °F 30.10 in ENE 3.9 mph 12 mph 77.2% 0.00 in 70 W/m2
09:19 56.2 °F 49.1 °F 30.10 in NE 2.6 mph 12 mph 77% 0.00 in 84 W/m2
09:24 56.2 °F 49.1 °F 30.10 in NE 1.8 mph 12 mph 77% 0.00 in 104 W/m2
09:29 56.2 °F 49.1 °F 30.10 in NE 1.4 mph 12 mph 77.1% 0.00 in 107 W/m2
09:34 56.2 °F 49.3 °F 30.11 in NE 1.8 mph 16 mph 77.3% 0.00 in 104 W/m2
09:39 56.3 °F 49.2 °F 30.11 in ENE 3 mph 16 mph 77% 0.00 in 91 W/m2
09:44 56.3 °F 49.2 °F 30.11 in ENE 1.1 mph 16 mph 77% 0.00 in 114 W/m2
09:49 56.3 °F 48.9 °F 30.11 in NE 3 mph 16 mph 76.3% 0.00 in 120 W/m2
09:54 56.3 °F 49 °F 30.11 in NE 2.6 mph 16 mph 76.4% 0.00 in 114 W/m2
09:59 56.3 °F 48.8 °F 30.11 in NE 3.6 mph 16 mph 76% 0.00 in 107 W/m2
10:04 56.2 °F 48.9 °F 30.11 in ENE 1.3 mph 16 mph 76.3% 0.00 in 114 W/m2
10:09 56.2 °F 48.8 °F 30.11 in ENE 1.5 mph 13 mph 76.2% 0.00 in 116 W/m2
10:14 56 °F 48.8 °F 30.12 in ENE 3.3 mph 13 mph 76.7% 0.00 in 155 W/m2
10:19 55.9 °F 48.7 °F 30.12 in ENE 2.3 mph 13 mph 76.8% 0.00 in 192 W/m2
10:24 55.9 °F 48.8 °F 30.12 in North 2.3 mph 13 mph 76.9% 0.00 in 181 W/m2
10:29 56 °F 48.6 °F 30.12 in ENE 2.4 mph 13 mph 76% 0.00 in 158 W/m2
10:34 56.1 °F 48.6 °F 30.12 in NE 2.4 mph 13 mph 76% 0.00 in 183 W/m2
10:39 56.2 °F 48.6 °F 30.12 in ENE 2.1 mph 12 mph 75.6% 0.00 in 156 W/m2
10:44 56.2 °F 48.5 °F 30.13 in NE 1.4 mph 12 mph 75.3% 0.00 in 123 W/m2
10:49 56.1 °F 48.3 °F 30.13 in ENE 5.3 mph 17 mph 74.8% 0.00 in 151 W/m2
10:54 55.9 °F 47.7 °F 30.13 in ENE 4.8 mph 18 mph 73.7% 0.00 in 141 W/m2
10:59 55.8 °F 47.5 °F 30.12 in NE 4.9 mph 18 mph 73.8% 0.00 in 148 W/m2
11:04 55.7 °F 47.3 °F 30.12 in ENE 6.6 mph 18 mph 73.4% 0.00 in 148 W/m2
11:09 55.6 °F 47.1 °F 30.12 in NE 4.7 mph 18 mph 73% 0.00 in 151 W/m2
11:14 55.6 °F 46.8 °F 30.12 in ENE 4.3 mph 18 mph 72.3% 0.00 in 195 W/m2
11:19 55.7 °F 47 °F 30.12 in ENE 5.3 mph 18 mph 72.6% 0.00 in 241 W/m2
11:24 55.8 °F 46.7 °F 30.12 in ENE 3.4 mph 18 mph 71.4% 0.00 in 241 W/m2
11:29 56 °F 46.9 °F 30.13 in ENE 3.6 mph 18 mph 71.3% 0.00 in 271 W/m2
11:34 56.2 °F 46.6 °F 30.13 in ENE 4.4 mph 18 mph 70% 0.00 in 297 W/m2
11:39 56.4 °F 45.9 °F 30.13 in ENE 5.8 mph 20 mph 67.9% 0.00 in 278 W/m2
11:44 56.4 °F 45.9 °F 30.13 in NE 4.2 mph 20 mph 67.9% 0.00 in 237 W/m2
11:49 56.4 °F 45.8 °F 30.12 in ENE 4.8 mph 20 mph 67.5% 0.00 in 206 W/m2
11:54 56.4 °F 45.3 °F 30.13 in ENE 7.8 mph 20 mph 66.1% 0.00 in 221 W/m2
11:59 56.3 °F 44.9 °F 30.13 in ENE 3.7 mph 20 mph 65.5% 0.00 in 220 W/m2
12:00 56.3 °F 45.1 °F 30.12 in ENE 2 mph 20 mph 66% 0.00 in 197 W/m2
12:09 56.2 °F 44.5 °F 30.14 in ENE 2.1 mph 21 mph 64.8% 0.00 in 169 W/m2
12:14 56.1 °F 44.2 °F 30.14 in ENE 2.8 mph 21 mph 64.2% 0.00 in 197 W/m2
12:19 56.1 °F 44 °F 30.14 in ENE 4.2 mph 21 mph 63.7% 0.00 in 214 W/m2
12:24 56 °F 43.6 °F 30.15 in East 2.2 mph 21 mph 63% 0.00 in 220 W/m2
12:29 56.1 °F 44 °F 30.15 in ENE 1.4 mph 21 mph 63.6% 0.00 in 221 W/m2
12:34 56.3 °F 43.7 °F 30.15 in NE 2.4 mph 21 mph 62.5% 0.00 in 264 W/m2
12:39 56.4 °F 42.8 °F 30.15 in ENE 6.2 mph 18 mph 60.2% 0.00 in 316 W/m2
12:44 56.4 °F 42 °F 30.15 in ENE 6.2 mph 23 mph 58.3% 0.00 in 320 W/m2
12:49 56.5 °F 41.5 °F 30.15 in ENE 5.3 mph 23 mph 57.2% 0.00 in 301 W/m2
12:54 56.6 °F 41.2 °F 30.15 in ENE 5.5 mph 23 mph 56.2% 0.00 in 332 W/m2
12:59 56.8 °F 41.3 °F 30.15 in ENE 3.9 mph 23 mph 56.2% 0.00 in 325 W/m2
13:04 56.8 °F 40.9 °F 30.15 in ENE 6.8 mph 23 mph 55.2% 0.00 in 299 W/m2
13:09 56.8 °F 40.9 °F 30.15 in ENE 5.8 mph 20 mph 55.2% 0.00 in 290 W/m2
13:14 56.6 °F 40.6 °F 30.14 in ENE 6 mph 20 mph 54.8% 0.00 in 271 W/m2
13:19 56.7 °F 41.4 °F 30.14 in ENE 3 mph 20 mph 56.6% 0.00 in 274 W/m2
13:24 56.7 °F 41.2 °F 30.14 in ENE 3.7 mph 20 mph 55.9% 0.00 in 318 W/m2
13:29 56.9 °F 41.3 °F 30.14 in NE 5.1 mph 20 mph 55.8% 0.00 in 330 W/m2
13:34 57 °F 41.2 °F 30.14 in ENE 4 mph 20 mph 55.5% 0.00 in 315 W/m2
13:39 57 °F 41.2 °F 30.14 in NE 2 mph 16 mph 55.5% 0.00 in 288 W/m2
13:44 57.1 °F 41.5 °F 30.14 in NE 2.8 mph 16 mph 55.9% 0.00 in 295 W/m2
13:49 57.1 °F 41 °F 30.14 in NE 5.1 mph 17 mph 54.8% 0.00 in 290 W/m2
13:54 56.9 °F 40.5 °F 30.14 in ENE 3.1 mph 17 mph 54.1% 0.00 in 251 W/m2
13:59 56.8 °F 41.2 °F 30.14 in ENE 3.5 mph 17 mph 55.8% 0.00 in 311 W/m2
14:04 56.8 °F 40.9 °F 30.14 in ENE 6.2 mph 17 mph 55.1% 0.00 in 336 W/m2
14:09 56.8 °F 40.3 °F 30.14 in NE 4.3 mph 17 mph 54% 0.00 in 323 W/m2
14:14 56.7 °F 40.2 °F 30.14 in ENE 4.7 mph 18 mph 54% 0.00 in 285 W/m2
14:19 56.5 °F 40.4 °F 30.15 in NE 4 mph 18 mph 54.7% 0.00 in 237 W/m2
14:24 56.4 °F 40.2 °F 30.15 in ENE 3.2 mph 18 mph 54.5% 0.00 in 218 W/m2
14:29 56.2 °F 40 °F 30.15 in ENE 4 mph 18 mph 54.3% 0.00 in 185 W/m2
14:34 55.9 °F 39.9 °F 30.14 in NE 4.7 mph 19 mph 54.8% 0.00 in 165 W/m2
14:39 55.6 °F 38.8 °F 30.15 in ENE 6.8 mph 19 mph 53% 0.00 in 176 W/m2
14:44 55.4 °F 39 °F 30.15 in ENE 4.3 mph 19 mph 53.9% 0.00 in 188 W/m2
14:49 55.3 °F 38.9 °F 30.15 in ENE 4.3 mph 19 mph 53.9% 0.00 in 204 W/m2
14:54 55.3 °F 39.2 °F 30.15 in ENE 2.8 mph 19 mph 54.5% 0.00 in 197 W/m2
14:59 55.3 °F 39 °F 30.15 in NE 4.8 mph 19 mph 54.2% 0.00 in 167 W/m2
15:04 55.3 °F 39.5 °F 30.15 in NE 1.9 mph 19 mph 55.1% 0.00 in 134 W/m2
15:09 55.2 °F 39.3 °F 30.15 in ENE 2.3 mph 11 mph 54.8% 0.00 in 137 W/m2
15:14 55.2 °F 39.1 °F 30.15 in ENE 2.8 mph 11 mph 54.6% 0.00 in 139 W/m2
15:19 55.1 °F 39.1 °F 30.15 in ENE 2.9 mph 12 mph 54.7% 0.00 in 146 W/m2
15:24 55 °F 39.5 °F 30.15 in ENE 3.2 mph 13 mph 55.7% 0.00 in 146 W/m2
15:29 55 °F 39 °F 30.15 in NE 3.7 mph 15 mph 54.8% 0.00 in 146 W/m2
15:34 54.9 °F 39.3 °F 30.14 in NE 4 mph 15 mph 55.6% 0.00 in 146 W/m2
15:39 54.9 °F 39.3 °F 30.15 in ENE 1.8 mph 13 mph 55.6% 0.00 in 172 W/m2
15:44 55 °F 39.6 °F 30.15 in ENE 2.5 mph 13 mph 56% 0.00 in 185 W/m2
15:49 55.1 °F 39 °F 30.15 in ENE 3.3 mph 13 mph 54.5% 0.00 in 181 W/m2
15:54 55.1 °F 38.8 °F 30.15 in ENE 3.6 mph 15 mph 54% 0.00 in 165 W/m2
15:59 55.1 °F 38.3 °F 30.15 in ENE 3.1 mph 15 mph 53% 0.00 in 158 W/m2
16:09 55.1 °F 38.3 °F 30.16 in NE 1.8 mph 8 mph 53% 0.00 in 135 W/m2
16:14 55 °F 38.2 °F 30.16 in NE 3.2 mph 13 mph 53% 0.00 in 121 W/m2
16:19 55 °F 38.2 °F 30.16 in ENE 2.6 mph 13 mph 53% 0.00 in 111 W/m2
16:24 54.9 °F 38.6 °F 30.16 in NE 1.2 mph 13 mph 54.1% 0.00 in 104 W/m2
16:29 54.9 °F 38.8 °F 30.16 in ENE 1.7 mph 13 mph 54.5% 0.00 in 90 W/m2
16:34 54.8 °F 38.4 °F 30.16 in ENE 3.5 mph 17 mph 53.9% 0.00 in 114 W/m2
16:39 54.8 °F 37.9 °F 30.17 in ENE 1.9 mph 17 mph 52.8% 0.00 in 114 W/m2
16:44 54.8 °F 37.7 °F 30.17 in ENE 5.4 mph 17 mph 52.4% 0.00 in 97 W/m2
16:49 54.7 °F 37 °F 30.17 in NE 4.9 mph 17 mph 51.2% 0.00 in 81 W/m2
16:54 54.6 °F 36.4 °F 30.17 in ENE 4.9 mph 17 mph 50.2% 0.00 in 79 W/m2
16:59 54.5 °F 36.5 °F 30.17 in ENE 2.9 mph 17 mph 50.5% 0.00 in 67 W/m2
17:04 54.4 °F 36.9 °F 30.17 in ENE 2.8 mph 17 mph 51.7% 0.00 in 58 W/m2
17:09 54.2 °F 36.5 °F 30.17 in ENE 5.5 mph 14 mph 51% 0.00 in 51 W/m2
17:14 54.1 °F 36.2 °F 30.17 in ENE 4.5 mph 18 mph 50.6% 0.00 in 53 W/m2
17:19 54 °F 36.3 °F 30.17 in ENE 4 mph 18 mph 51.1% 0.00 in 54 W/m2
17:24 53.9 °F 36.3 °F 30.17 in ENE 3.6 mph 18 mph 51.2% 0.00 in 42 W/m2
17:29 53.8 °F 36.5 °F 30.18 in NE 2.2 mph 18 mph 51.9% 0.00 in 37 W/m2
17:34 53.7 °F 37.2 °F 30.18 in NE 0.5 mph 18 mph 53.5% 0.00 in 42 W/m2
17:39 53.7 °F 37.1 °F 30.19 in NE 1.6 mph 10 mph 53.2% 0.00 in 42 W/m2
17:44 53.6 °F 36 °F 30.19 in ENE 2.9 mph 12 mph 51.2% 0.00 in 33 W/m2
17:49 53.5 °F 36.1 °F 30.19 in ENE 1.3 mph 12 mph 51.4% 0.00 in 23 W/m2
17:54 53.5 °F 36.4 °F 30.18 in East 1.1 mph 12 mph 52.2% 0.00 in 23 W/m2
17:59 53.3 °F 36.4 °F 30.19 in ESE 0.6 mph 12 mph 52.5% 0.00 in 25 W/m2
18:04 53.2 °F 36 °F 30.19 in ENE 2.2 mph 12 mph 52% 0.00 in 19 W/m2
18:09 53.1 °F 36.3 °F 30.19 in ENE 0.5 mph 7 mph 52.9% 0.00 in 12 W/m2
18:14 52.9 °F 36.3 °F 30.19 in NE 1.4 mph 12 mph 53% 0.00 in 9 W/m2
18:19 52.8 °F 36.1 °F 30.19 in NE 2.4 mph 12 mph 52.8% 0.00 in 5 W/m2
18:24 52.7 °F 36.1 °F 30.19 in ENE 1.3 mph 12 mph 53.1% 0.00 in 0 W/m2
18:29 52.6 °F 35.9 °F 30.20 in NE 3.8 mph 12 mph 53% 0.00 in 0 W/m2
18:34 52.4 °F 35.8 °F 30.20 in NE 3.3 mph 14 mph 53% 0.00 in 0 W/m2
18:39 52.4 °F 35.9 °F 30.20 in NE 2.5 mph 14 mph 53.4% 0.00 in 0 W/m2
18:44 52.3 °F 35.9 °F 30.19 in ENE 1.6 mph 14 mph 53.5% 0.00 in 0 W/m2
18:49 52.2 °F 35.8 °F 30.19 in ENE 1.1 mph 14 mph 53.4% 0.00 in 0 W/m2
18:54 52.1 °F 36 °F 30.19 in ENE 2 mph 15 mph 54% 0.00 in 0 W/m2
18:59 52 °F 35.9 °F 30.19 in ENE 1.8 mph 15 mph 54% 0.00 in 0 W/m2
19:04 51.9 °F 35.8 °F 30.19 in East 1.9 mph 15 mph 54% 0.00 in 0 W/m2
19:09 51.8 °F 35.8 °F 30.19 in ENE 1 mph 14 mph 54.2% 0.00 in 0 W/m2
19:14 51.8 °F 35.7 °F 30.19 in ENE 1.2 mph 14 mph 54% 0.00 in 0 W/m2
19:19 51.7 °F 35.6 °F 30.19 in ENE 2.2 mph 14 mph 54% 0.00 in 0 W/m2
19:24 51.7 °F 35.8 °F 30.20 in ENE 1.4 mph 14 mph 54.5% 0.00 in 0 W/m2
19:29 51.6 °F 35.8 °F 30.20 in ENE 1.8 mph 14 mph 54.7% 0.00 in 0 W/m2
19:34 51.5 °F 35.5 °F 30.20 in ENE 3.4 mph 14 mph 54.2% 0.00 in 0 W/m2
19:39 51.5 °F 35.4 °F 30.20 in ENE 3.5 mph 13 mph 54% 0.00 in 0 W/m2
19:44 51.5 °F 35.7 °F 30.20 in ENE 2.6 mph 13 mph 54.5% 0.00 in 0 W/m2
19:49 51.5 °F 35.4 °F 30.21 in ENE 2.9 mph 13 mph 54% 0.00 in 0 W/m2
19:54 51.5 °F 35.6 °F 30.21 in ENE 3.3 mph 13 mph 54.3% 0.00 in 0 W/m2
19:59 51.4 °F 35.6 °F 30.21 in ENE 3.4 mph 13 mph 54.7% 0.00 in 0 W/m2
20:00 51.4 °F 35.8 °F 30.20 in NE 4 mph 13 mph 55% 0.00 in 0 W/m2
20:09 51.3 °F 35.8 °F 30.20 in ENE 1.8 mph 10 mph 55.2% 0.00 in 0 W/m2
20:14 51.3 °F 35.7 °F 30.20 in NE 1.5 mph 10 mph 55.1% 0.00 in 0 W/m2
20:19 51.2 °F 35.8 °F 30.21 in NE 3.1 mph 12 mph 55.3% 0.00 in 0 W/m2
20:24 51.1 °F 35.8 °F 30.21 in ENE 1.1 mph 12 mph 55.5% 0.00 in 0 W/m2
20:29 51.1 °F 35.9 °F 30.21 in NE 1 mph 12 mph 56% 0.00 in 0 W/m2
20:34 51 °F 35.9 °F 30.22 in ENE 1.4 mph 12 mph 56% 0.00 in 0 W/m2
20:39 51 °F 36.2 °F 30.22 in NE 1.5 mph 9 mph 56.8% 0.00 in 0 W/m2
20:44 50.9 °F 36.3 °F 30.22 in ENE 1 mph 9 mph 57.3% 0.00 in 0 W/m2
20:49 50.8 °F 36.2 °F 30.23 in ENE 0.8 mph 11 mph 57.1% 0.00 in 0 W/m2
20:54 50.8 °F 36.5 °F 30.23 in ENE 1 mph 11 mph 57.7% 0.00 in 0 W/m2
20:59 50.7 °F 36.4 °F 30.22 in NE 1.3 mph 11 mph 57.7% 0.00 in 0 W/m2
21:04 50.7 °F 36.5 °F 30.22 in ENE 1.2 mph 11 mph 58% 0.00 in 0 W/m2
21:09 50.6 °F 36.4 °F 30.22 in ENE 0.9 mph 6 mph 58% 0.00 in 0 W/m2
21:14 50.6 °F 36.4 °F 30.21 in ENE 1.7 mph 10 mph 58.1% 0.00 in 0 W/m2
21:19 50.5 °F 36.3 °F 30.22 in ENE 1.1 mph 10 mph 58.1% 0.00 in 0 W/m2
21:24 50.5 °F 37 °F 30.22 in ENE 0.4 mph 10 mph 59.6% 0.00 in 0 W/m2
21:29 50.5 °F 36.8 °F 30.22 in ENE 3.4 mph 11 mph 59.2% 0.00 in 0 W/m2
21:34 50.5 °F 36.7 °F 30.22 in NE 1.7 mph 11 mph 59% 0.00 in 0 W/m2
21:39 50.4 °F 36.8 °F 30.22 in NNE 0.9 mph 10 mph 59.3% 0.00 in 0 W/m2
21:44 50.4 °F 37.1 °F 30.22 in Calm   10 mph 60% 0.00 in 0 W/m2
21:49 50.3 °F 37 °F 30.22 in Calm   10 mph 60.1% 0.00 in 0 W/m2
21:54 50.3 °F 37.1 °F 30.22 in ENE 0.2 mph 10 mph 60.2% 0.00 in 0 W/m2
21:59 50.2 °F 37.2 °F 30.22 in ENE 0.5 mph 10 mph 60.7% 0.00 in 0 W/m2
22:04 50.2 °F 37.4 °F 30.22 in Calm   10 mph 61.4% 0.00 in 0 W/m2
22:09 50.2 °F 37.5 °F 30.22 in NNW 0.3 mph 5 mph 61.7% 0.00 in 0 W/m2
22:14 50.1 °F 37.5 °F 30.22 in NW 0.1 mph 5 mph 61.8% 0.00 in 0 W/m2
22:19 50.1 °F 37.6 °F 30.22 in NNW 0.5 mph 8 mph 62.1% 0.00 in 0 W/m2
22:24 50 °F 37.5 °F 30.22 in North 0.5 mph 8 mph 62% 0.00 in 0 W/m2
22:29 50 °F 37.5 °F 30.22 in NW 0.5 mph 8 mph 62% 0.00 in 0 W/m2
22:34 49.9 °F 37.5 °F 30.23 in North 0.4 mph 12 mph 62.2% 0.00 in 0 W/m2
22:39 49.9 °F 37.7 °F 30.23 in North 0.5 mph 12 mph 62.7% 0.00 in 0 W/m2
22:44 49.9 °F 37.8 °F 30.22 in NE 0.4 mph 12 mph 62.8% 0.00 in 0 W/m2
22:49 49.9 °F 37.4 °F 30.22 in NE 1.1 mph 12 mph 62% 0.00 in 0 W/m2
22:54 49.9 °F 37.4 °F 30.21 in NE 0.4 mph 12 mph 62% 0.00 in 0 W/m2
22:59 49.9 °F 37.4 °F 30.21 in ENE 0.5 mph 12 mph 61.8% 0.00 in 0 W/m2
23:04 50 °F 37.5 °F 30.21 in NE 0.3 mph 12 mph 62% 0.00 in 0 W/m2
23:09 50 °F 37.5 °F 30.22 in North 0.2 mph 4 mph 62% 0.00 in 0 W/m2
23:14 50 °F 37.5 °F 30.22 in NE 0.3 mph 4 mph 62% 0.00 in 0 W/m2
23:19 50.1 °F 37.6 °F 30.22 in NE 0.9 mph 10 mph 62% 0.00 in 0 W/m2
23:24 50.1 °F 37.6 °F 30.22 in NNE 0.1 mph 10 mph 62% 0.00 in 0 W/m2
23:28 50.1 °F 37.7 °F 30.22 in ENE 0.8 mph 10 mph 62.3% 0.00 in 0 W/m2
Hartford County Weather
Compliments of Weather Underground - 4 mb